x

Eastern Caribbean - 190 Nm Nne Of Curacao (42059) Wave Buoy

6:50pm - Sat 13th Feb 2016 All times are AST. -4 hours from GMT.

  • Sig Wave height 6.2ft
  • Swell Direction
  • Peak Period 7s
  • Average Period 6s
  • Wind
    18mph, 20mph gusts
  • Sea Temp 81°f
  • Air Temp 80°f
  • Sea Pressure 1013.9mb
  • Eastern Caribbean - 190 Nm Nne Of Curacao
  • Eastern Caribbean - 190 Nm Nne Of Curacao

More Historic Weather Station data

Upgrade to MSW Pro to gain access to the past 30 days of data for over 8000 Wavebouys and Weather Stations around the globe.

Join Pro

Comparision Forecast

View Surf forecast
   
Sat 02/13 6:50pm 6ft 7s 6s 18 20 mph 1013.9mb 81f 80f
5:50pm 5.5ft 6s 6s 16 18 mph 1013.7mb 81f 80f
4:50pm 6ft 7s 6s 16 18 mph 1013.6mb 81f 80f
3:50pm 5.5ft 6s 6s 16 18 mph 1013.4mb 81f 80f
2:50pm 5.5ft 7s 6s 16 20 mph 1013.5mb 81f 80f
1:50pm 6ft 7s 6s 16 20 mph 1014.5mb 81f 80f
12:50pm 6ft 7s 5s 18 20 mph 1015.1mb 81f 80f
11:50am 6ft 6s 5s 18 22 mph 1015.8mb 81f 80f
10:50am 6ft 7s 6s 16 18 mph 1016.7mb 81f 80f
9:50am 6ft 7s 6s 20 22 mph 1016.3mb 81f 80f
8:50am 6ft 6s 6s 18 20 mph 1015.9mb 81f 80f
7:50am 6.5ft 7s 6s 18 20 mph 1015.3mb 81f 80f
6:50am 6ft 7s 6s 18 22 mph 1014.5mb 81f 80f
5:50am 6.5ft 7s 6s 18 22 mph 1013.8mb 81f 80f
4:50am 6ft 6s 6s 20 25 mph 1013mb 81f 80f
3:50am 6ft 6s 5s 25 29 mph 1012.6mb 81f 80f
2:50am 6.5ft 6s 6s 25 29 mph 1013.1mb 81f 80f
1:50am 6.5ft 7s 6s 20 25 mph 1014.4mb 81f 80f
12:50am 6ft 7s 6s 20 25 mph 1015.1mb 81f 80f
Fri 02/12 11:50pm 6ft 6s 5s 20 25 mph 1015.7mb 81f 80f
10:50pm 6ft 7s 6s 20 27 mph 1015.9mb 81f 80f
9:50pm 6ft 6s 5s 22 27 mph 1015.6mb 81f 80f
8:50pm 6ft 6s 5s 22 29 mph 1015.2mb 81f 80f
7:50pm 5.5ft 6s 5s 22 27 mph 1015.1mb 81f 80f
6:50pm 5ft 7s 5s 22 27 mph 1015mb 81f 80f
5:50pm 5ft 6s 6s 20 25 mph 1014.9mb 81f 80f
4:50pm 5ft 6s 6s 18 20 mph 1014.9mb 81f 80f
3:50pm 5ft 6s 6s 18 20 mph 1015mb 81f 80f
2:50pm 5.5ft 9s 6s 16 18 mph 1015.7mb 81f 79f
1:50pm 5ft 9s 6s 18 20 mph 1016.6mb 81f 78f
12:50pm 5ft 7s 5s 20 25 mph 1018mb 81f 76f
11:50am 5ft 7s 5s 18 20 mph 1018.2mb 81f 80f
10:50am 5.5ft 6s 5s 18 20 mph 1019.3mb 81f 80f
9:50am 5ft 6s 5s 18 20 mph 1018.9mb 81f 80f
8:50am 5.5ft 7s 5s 18 22 mph 1018.1mb 81f 80f
7:50am 5.5ft 6s 5s 18 20 mph 1017.7mb 81f 80f
6:50am 5ft 6s 5s 18 22 mph 1016.9mb 81f 80f
5:50am 5.5ft 7s 5s 18 22 mph 1016.4mb 81f 80f
4:50am 5.5ft 7s 5s 18 22 mph 1015.8mb 81f 80f
3:50am 5.5ft 6s 5s 20 22 mph 1015.3mb 81f 80f
2:50am 5ft 7s 6s 20 22 mph 1015.8mb 81f 80f
1:50am 5ft 7s 6s 20 25 mph 1016.1mb 81f 80f
12:50am 5ft 10s 5s 20 22 mph 1016.7mb 81f 80f
Thu 02/11 11:50pm 5ft 7s 6s 18 20 mph 1017mb 81f 80f
10:50pm 5.5ft 7s 6s 18 22 mph 1017.2mb 81f 80f
9:50pm 6ft 7s 6s 16 20 mph 1017.2mb 81f 80f
8:50pm 5.5ft 6s 6s 18 20 mph 1016.6mb 81f 80f
7:50pm 5.5ft 6s 6s 18 20 mph 1016.1mb 81f 80f
6:50pm 6ft 6s 6s 18 20 mph 1015.8mb 81f 80f
5:50pm 6ft 7s 6s 18 20 mph 1015.5mb 81f 80f
4:50pm 5.5ft 7s 6s 16 20 mph 1015.5mb 81f 80f
3:50pm 5.5ft 7s 6s 16 18 mph 1015.3mb 81f 80f
2:50pm 5ft 6s 6s 18 20 mph 1015.3mb 81f 80f
1:50pm 5.5ft 6s 6s 16 18 mph 1016.1mb 81f 80f
12:50pm 5.5ft 6s 6s 16 18 mph 1016.9mb 81f 80f
11:50am 5ft 6s 5s 18 20 mph 1017.8mb 81f 80f
10:50am 5ft 8s 5s 16 20 mph 1018.5mb 81f 80f
9:50am 5.5ft 7s 6s 18 22 mph 1018.4mb 81f 80f
8:50am 6ft 6s 6s 18 20 mph 1017.9mb 81f 80f
7:50am 5.5ft 7s 6s 18 20 mph 1017.4mb 81f 80f
6:50am 6ft 7s 6s 18 20 mph 1016.9mb 81f 80f
5:50am 6ft 6s 6s 16 20 mph 1016.3mb 81f 80f
4:50am 5.5ft 7s 6s 18 20 mph 1015.5mb 81f 80f
3:50am 5.5ft 6s 6s 18 20 mph 1015.6mb 81f 80f
2:50am 5.5ft 6s 6s 18 22 mph 1015.7mb 81f 80f
1:50am 6ft 7s 6s 18 22 mph 1016.1mb 81f 80f
12:50am 6ft 7s 6s 18 20 mph 1016.9mb 81f 80f
Wed 02/10 11:50pm 5.5ft 7s 6s 16 20 mph 1017.8mb 81f 80f
10:50pm 5.5ft 8s 6s 16 18 mph 1017.9mb 81f 80f
9:50pm 6ft 6s 6s 11 13 mph 1018mb 81f 80f
8:50pm 5.5ft 7s 6s 13 16 mph 1017.4mb 81f 80f
7:50pm 5.5ft 6s 6s 16 18 mph 1016.8mb 81f 80f
6:50pm 5.5ft 6s 6s 16 18 mph 1016.5mb 81f 80f
5:50pm 5.5ft 7s 5s 16 18 mph 1016.2mb 81f 81f
4:50pm 6ft 7s 6s 16 18 mph 1015.6mb 81f 81f
3:50pm 6ft 7s 5s 18 20 mph 1015.4mb 81f 81f
2:50pm 6ft 7s 6s 18 22 mph 1015.6mb 81f 81f
1:50pm 6ft 6s 6s 18 22 mph 1016.3mb 81f 81f
12:50pm 6ft 6s 6s 18 20 mph 1017.3mb 81f 81f
11:50am 6ft 7s 6s 18 22 mph 1018.1mb 81f 81f
10:50am 6ft 7s 5s 18 22 mph 1018.5mb 81f 81f
9:50am 6ft 7s 5s 20 25 mph 1018.2mb 81f 81f
8:50am 6ft 6s 6s 22 27 mph 1017.6mb 81f 81f
7:50am 6ft 7s 6s 20 25 mph 1017mb 81f 80f
6:50am 6ft 7s 6s 18 22 mph 1016.3mb 81f 80f
5:50am 6.5ft 7s 6s 20 22 mph 1015.5mb 81f 80f
4:50am 6ft 7s 6s 18 22 mph 1015.2mb 81f 80f
3:50am 6.5ft 7s 6s 20 25 mph 1015mb 81f 80f
2:50am 6ft 8s 6s 20 22 mph 1015.6mb 81f 80f
1:50am 6ft 7s 6s 20 22 mph 1016.3mb 81f 80f
12:50am 6ft 7s 6s 20 22 mph 1016.7mb 81f 80f